Date,TemperatureHighF,TemperatureAvgF,TemperatureLowF,DewpointHighF,DewpointAvgF,DewpointLowF,HumidityHigh,HumidityAvg,HumidityLow,PressureMaxIn,PressureMinIn,WindSpeedMaxMPH,WindSpeedAvgMPH,GustSpeedMaxMPH,PrecipitationSumIn
2013-1-1,33,24,10,20,4,-8,74,45,27,29.85,29.59,9,2,16,0.00
2013-1-2,26,14,2,5,-6,-17,59,39,25,30.03,29.82,11,2,23,0.00
2013-1-3,25,10,-6,-2,-9,-20,53,42,26,30.07,29.91,5,1,11,0.00
2013-1-4,35,26,1,19,13,-11,75,59,47,29.90,29.70,8,1,14,0.00
2013-1-5,38,30,15,22,10,2,65,44,26,30.23,29.71,14,2,24,0.00
2013-1-6,39,28,13,24,16,2,71,62,51,30.18,29.60,8,1,11,0.00
2013-1-7,33,28,10,20,14,0,73,57,45,30.31,29.90,7,1,10,0.00
2013-1-8,45,32,8,23,17,-1,77,55,36,30.32,30.14,13,2,13,0.00
2013-1-9,39,29,14,27,19,6,76,68,59,30.38,29.86,10,1,10,0.00
2013-1-10,46,40,26,29,22,16,72,50,41,30.48,29.88,31,7,31,0.00
2013-1-11,38,31,19,28,21,10,80,66,42,30.49,30.21,5,1,5,0.00
2013-1-12,43,39,33,38,34,28,87,83,81,30.21,30.06,6,0,6,0.01
2013-1-13,42,38,35,38,34,31,88,85,83,30.11,29.71,4,0,4,0.01
2013-1-14,61,46,33,50,36,22,88,69,47,30.17,29.80,11,2,11,0.01
2013-1-15,42,31,27,26,22,19,78,69,46,30.27,30.18,4,0,4,0.00
2013-1-16,32,30,28,26,24,18,81,77,59,30.22,29.73,5,0,5,0.00
2013-1-17,42,30,18,32,14,-9,82,54,25,30.08,29.72,17,3,17,0.33
2013-1-18,22,14,6,-8,-13,-19,46,29,22,30.37,30.05,17,3,17,0.00
2013-1-19,41,31,11,22,16,-5,69,54,41,30.30,29.81,9,1,9,0.00
2013-1-20,50,38,26,30,19,-2,78,48,27,29.80,29.40,30,7,30,0.01
2013-1-21,29,22,14,8,-4,-12,59,31,22,30.00,29.78,15,4,15,0.00
2013-1-22,24,17,8,5,-6,-18,55,36,25,29.99,29.71,8,2,13,0.00
2013-1-23,10,2,-7,-18,-24,-28,38,27,21,30.06,29.98,11,2,15,0.00
2013-1-24,18,4,-10,-14,-20,-27,48,31,22,30.10,29.91,11,2,16,0.00
2013-1-25,24,10,-5,-3,-12,-22,53,36,24,30.18,30.02,7,1,10,0.00
2013-1-26,24,18,10,-6,-10,-14,45,27,22,30.11,29.95,11,3,14,0.00
2013-1-27,34,21,8,1,-7,-14,45,28,23,30.39,29.50,9,2,15,0.00
2013-1-28,29,18,6,15,4,-8,74,56,22,30.38,30.02,4,0,6,0.00
2013-1-29,35,29,20,25,20,13,77,69,58,30.17,30.02,4,0,5,0.05
2013-1-30,42,38,32,38,35,26,88,86,78,30.09,29.38,2,0,3,0.11
2013-1-31,56,45,30,51,32,6,88,64,33,29.41,28.79,18,6,31,0.26
2013-2-1,32,25,17,12,0,-16,49,33,20,29.98,29.43,14,4,21,0.00
2013-2-2,28,21,10,8,-1,-7,59,39,24,30.15,29.98,7,1,11,0.00
2013-2-3,29,25,18,11,8,4,58,47,39,29.99,29.65,8,2,12,0.00
2013-2-4,31,24,16,11,1,-12,66,38,22,29.81,29.61,13,3,26,0.00
2013-2-5,31,19,7,2,-3,-13,55,38,22,30.26,29.81,5,1,10,0.47
2013-2-6,39,28,16,20,9,-10,63,46,26,30.22,29.87,8,2,14,0.00
2013-2-7,26,17,8,-7,-11,-16,43,27,22,30.52,30.23,7,1,11,0.00
2013-2-8,16,14,10,8,4,-16,71,65,24,30.51,29.83,13,4,21,0.00
2013-2-9,20,16,11,11,6,1,72,63,48,30.07,29.63,16,6,38,0.00
2013-2-10,43,25,4,8,1,-11,56,36,21,30.31,30.08,6,1,12,0.00
2013-2-11,33,23,6,28,16,-6,83,72,53,30.30,29.53,3,0,6,0.06
2013-2-12,48,37,26,33,26,20,84,65,44,29.74,29.48,9,2,17,0.14
2013-2-13,49,35,21,26,20,14,75,57,32,29.78,29.68,6,1,9,0.00
2013-2-14,46,36,26,23,18,14,69,49,28,29.94,29.66,8,1,14,0.00
2013-2-15,52,35,20,30,23,12,80,64,40,29.94,29.84,5,1,11,0.00
2013-2-16,41,35,28,32,24,2,80,65,32,29.90,29.73,8,2,14,0.01
2013-2-17,28,22,18,14,5,-9,75,50,29,29.71,29.18,15,5,33,0.00
2013-2-18,36,24,15,2,-5,-13,35,26,21,30.00,29.44,14,4,24,0.00
2013-2-19,43,34,14,39,14,-13,85,47,21,30.05,29.52,6,1,10,0.33
2013-2-20,40,34,27,36,20,11,86,58,43,29.60,29.39,10,3,23,0.04
2013-2-21,30,26,22,12,9,2,55,47,32,30.06,29.61,9,3,21,0.00
2013-2-22,46,34,21,20,16,12,67,50,29,30.36,30.11,8,1,12,0.00
2013-2-23,38,34,26,31,26,16,83,74,59,30.30,29.95,6,1,9,0.05
2013-2-24,34,31,29,29,27,25,84,82,80,29.94,29.72,1,0,4,0.02
2013-2-25,45,35,25,34,26,19,83,71,50,30.18,29.85,4,0,10,0.15
2013-2-26,47,37,30,30,26,23,84,66,45,30.31,30.20,6,1,8,0.00
2013-2-27,38,34,31,33,28,25,84,80,72,30.19,29.65,9,2,17,0.20
2013-2-28,40,36,32,36,32,28,87,84,82,29.60,29.49,6,1,10,0.53
2013-3-1,40,36,32,28,27,25,83,71,61,29.62,29.49,8,2,13,0.00
2013-3-2,49,37,31,30,27,25,83,68,45,29.61,29.55,8,2,14,0.05
2013-3-3,46,38,32,32,27,23,81,64,50,29.57,29.48,6,2,13,0.08
2013-3-4,41,34,32,26,22,19,68,60,54,29.65,29.46,9,3,18,0.01
2013-3-5,48,41,32,32,29,20,76,62,50,30.06,29.65,9,2,15,0.00
2013-3-6,41,36,32,29,25,22,78,64,54,30.19,30.06,13,4,30,0.00
2013-3-7,38,34,32,24,21,19,72,57,51,30.15,30.03,14,5,25,0.00
2013-3-8,50,40,29,24,18,13,79,42,26,30.16,29.97,11,5,20,0.01
2013-3-9,57,41,26,26,20,15,76,48,22,30.34,30.14,11,2,21,0.00
2013-3-10,47,28,21,28,20,15,77,70,47,30.39,30.25,4,0,6,0.00
2013-3-11,53,40,31,34,30,24,79,67,43,30.27,30.10,5,1,9,0.00
2013-3-12,49,45,36,44,40,30,86,83,75,30.10,29.67,8,2,19,0.46
2013-3-13,50,43,32,44,35,25,87,73,55,29.70,29.63,8,1,12,0.01
2013-3-14,43,32,23,26,17,1,79,54,35,29.71,29.56,10,2,19,0.00
2013-3-15,41,29,16,18,6,-2,66,40,24,29.75,29.54,10,2,16,0.00
2013-3-16,38,31,23,21,9,4,71,40,26,29.84,29.58,8,2,13,0.00
2013-3-17,35,27,16,12,1,-7,67,36,23,30.26,29.84,12,3,26,0.00
2013-3-18,40,27,9,16,4,-9,58,39,21,30.40,30.23,8,1,11,0.00
2013-3-19,33,29,24,28,23,17,84,79,59,30.22,29.64,12,3,18,0.00
2013-3-20,40,32,18,25,18,11,79,58,37,29.69,29.57,11,3,17,0.01
2013-3-21,47,34,17,19,14,7,68,45,25,29.72,29.56,8,2,10,0.00
2013-3-22,42,34,19,18,14,10,71,45,29,29.61,29.54,8,2,13,0.00
2013-3-23,44,36,22,21,18,9,61,46,31,29.63,29.47,14,4,22,0.00
2013-3-24,51,42,27,23,21,15,69,44,29,29.75,29.63,8,2,17,0.00
2013-3-25,45,37,24,30,24,16,74,61,49,29.73,29.54,8,2,11,0.00
2013-3-26,55,43,31,24,20,16,64,42,24,29.70,29.51,11,3,17,0.00
2013-3-27,53,36,24,33,25,15,81,66,32,29.83,29.66,7,1,11,0.07
2013-3-28,52,43,34,34,30,24,83,61,38,29.95,29.83,7,1,9,0.02
2013-3-29,56,46,32,34,29,24,75,53,34,29.98,29.65,8,2,11,0.00
2013-3-30,59,45,30,32,22,15,75,46,22,30.05,29.93,8,1,13,0.00
2013-3-31,54,43,24,34,25,15,75,51,23,30.07,29.83,11,2,21,0.00
2013-4-1,58,45,35,41,33,10,86,64,33,29.78,29.42,16,3,24,0.40
2013-4-2,40,34,25,12,7,2,54,32,24,29.79,29.65,16,4,24,0.00
2013-4-3,47,38,28,16,10,4,57,31,21,30.01,29.77,14,5,23,0.00
2013-4-4,56,42,26,24,15,5,65,35,21,30.17,29.93,11,3,17,0.00
2013-4-5,60,47,30,29,24,17,67,42,22,29.93,29.59,13,3,20,0.00
2013-4-6,44,36,26,18,7,0,58,31,22,30.30,29.79,11,3,25,0.11
2013-4-7,51,41,23,36,27,9,68,56,35,30.29,29.81,10,2,16,0.00
2013-4-8,65,51,35,39,34,29,85,55,31,30.10,29.85,8,2,16,0.00
2013-4-9,53,45,38,42,39,31,86,79,65,30.07,29.84,6,1,11,0.43
2013-4-10,61,50,40,45,42,36,87,75,54,29.94,29.84,7,1,8,0.30
2013-4-11,54,48,42,41,26,14,86,49,23,30.12,29.82,9,2,15,0.05
2013-4-12,41,35,33,29,24,10,84,67,33,30.22,29.84,7,2,10,0.13
2013-4-13,48,41,33,36,33,29,85,74,58,29.88,29.75,6,1,8,0.28
2013-4-14,54,45,36,38,33,28,87,65,42,30.16,29.84,9,1,14,0.04
2013-4-15,59,46,28,38,33,23,83,62,37,30.38,30.15,7,2,12,0.01
2013-4-16,58,49,32,48,39,15,85,69,45,30.37,29.43,7,2,11,0.02
2013-4-17,65,55,40,49,30,25,75,41,24,30.36,29.96,9,2,15,0.01
2013-4-18,52,46,30,38,31,22,79,57,34,30.48,30.16,8,2,13,0.00
2013-4-19,75,61,48,58,51,38,81,70,54,30.14,29.65,10,2,14,0.00
2013-4-20,62,53,43,56,33,20,85,49,30,30.16,29.59,16,4,27,0.21
2013-4-21,54,43,31,24,19,15,64,39,22,30.70,30.18,11,2,20,0.01
2013-4-22,52,42,29,32,23,15,77,50,24,30.82,30.66,11,2,13,0.00
2013-4-23,44,39,30,38,33,25,86,78,72,30.65,30.20,7,2,11,0.00
2013-4-24,71,54,42,52,44,38,86,71,48,30.20,29.78,11,2,14,0.05
2013-4-25,66,57,42,48,34,23,86,47,21,30.30,29.77,13,3,22,0.06
2013-4-26,60,49,31,37,32,25,84,56,34,30.45,30.31,9,2,14,0.00
2013-4-27,64,47,33,40,35,29,89,66,34,30.43,30.32,7,1,11,0.00
2013-4-28,68,54,32,42,34,27,89,52,23,30.35,30.26,10,2,14,0.00
2013-4-29,68,56,35,46,40,29,84,57,38,30.28,30.21,8,2,13,0.00
2013-4-30,71,55,34,46,34,26,89,51,20,30.41,30.26,8,2,12,0.00
2013-5-1,73,58,31,38,32,23,85,43,17,30.49,30.40,8,1,11,0.00
2013-5-2,73,53,36,47,38,30,85,60,32,30.54,30.42,8,2,16,0.00
2013-5-3,66,50,32,46,39,28,90,67,48,30.58,30.41,6,1,8,0.00
2013-5-4,65,52,36,45,39,30,90,62,46,30.41,30.32,10,2,14,0.00
2013-5-5,65,55,36,45,40,31,88,58,38,30.36,29.92,13,4,13,0.00
2013-5-6,68,52,31,48,41,27,90,69,44,30.33,30.22,12,4,12,0.00
2013-5-7,78,62,44,55,50,42,92,67,39,30.22,30.15,13,3,13,0.00
2013-5-8,76,64,45,60,54,42,90,71,54,30.29,30.20,17,4,17,0.00
2013-5-9,65,57,54,57,53,50,91,86,76,30.17,29.95,6,1,13,0.56
2013-5-10,78,63,53,60,55,50,93,78,51,30.03,29.94,3,1,8,0.13
2013-5-11,68,61,52,61,56,49,91,85,74,29.99,29.73,2,0,8,0.37
2013-5-12,71,61,45,59,51,36,90,72,39,29.81,29.59,6,1,17,0.11
2013-5-13,55,50,38,36,32,29,78,52,40,29.95,29.80,8,4,24,0.00
2013-5-14,55,55,55,31,31,31,40,40,40,29.95,29.95,5,5,12,0.00
2013-5-15,55,55,55,31,31,31,40,40,40,29.95,29.95,5,5,12,0.00
2013-5-16,80,68,55,50,39,31,56,36,22,29.95,29.63,9,3,20,0.15
2013-5-17,69,60,0,44,41,37,80,49,33,30.27,29.87,6,2,27,0.00
2013-5-18,68,55,40,48,43,36,88,67,44,30.39,30.26,4,2,17,0.00
2013-5-19,64,54,48,51,47,44,89,77,61,30.42,30.29,3,1,9,0.12
2013-5-20,77,63,51,63,56,48,91,80,58,30.27,29.98,2,0,7,0.17
2013-5-21,57,53,50,53,48,46,89,84,81,30.11,30.01,3,1,9,0.17
2013-5-22,59,53,50,52,49,47,92,87,78,30.04,29.95,2,0,5,0.30
2013-5-23,67,61,50,61,56,47,92,85,75,29.99,29.85,2,0,6,0.09
2013-5-24,72,62,50,65,57,46,89,85,77,29.91,29.69,5,1,18,0.90
2013-5-25,53,49,46,48,45,43,91,87,79,29.91,29.38,7,4,21,0.73
2013-5-26,58,51,42,44,41,37,91,70,54,30.05,29.65,6,3,17,0.04
2013-5-27,71,61,38,43,38,31,87,46,23,30.22,30.04,6,2,17,0.01
2013-5-28,75,60,38,48,39,32,91,52,23,30.28,30.22,4,2,13,0.00
2013-5-29,60,56,46,55,52,42,89,87,81,30.25,30.05,2,0,6,0.17
2013-5-30,89,76,56,64,60,53,91,62,37,30.11,30.01,5,2,21,0.00
2013-5-31,95,82,59,69,64,56,87,56,40,30.12,30.00,5,2,15,0.00
2013-6-1,97,84,63,69,64,57,82,54,33,30.03,29.92,4,1,12,0.00
2013-6-2,91,80,67,70,65,61,86,62,46,29.93,29.75,6,2,17,0.15
2013-6-3,81,69,56,67,62,52,90,79,57,29.87,29.77,3,1,10,0.34
2013-6-4,68,61,48,52,46,42,90,60,40,30.11,29.85,6,2,20,0.01
2013-6-5,74,64,47,52,46,35,85,54,31,30.22,30.12,4,1,10,0.00
2013-6-6,71,63,52,53,48,40,85,60,35,30.26,30.21,4,1,12,0.00
2013-6-7,60,55,52,52,50,46,90,81,60,30.21,29.99,2,1,8,0.47
2013-6-8,74,63,53,61,56,50,91,78,58,30.04,29.70,5,2,14,0.40
2013-6-9,81,69,55,61,55,51,89,64,40,30.23,30.03,4,1,11,0.00
2013-6-10,70,64,51,56,54,47,89,70,57,30.26,30.11,2,1,7,0.00
2013-6-11,60,56,55,55,53,52,89,87,81,30.11,29.60,4,1,14,0.74
2013-6-12,64,60,56,56,53,51,89,77,69,29.83,29.57,4,2,16,0.08
2013-6-13,72,62,50,55,52,46,88,70,49,29.85,29.78,3,1,9,0.00
2013-6-14,81,65,55,56,53,49,88,69,34,29.80,29.72,3,1,10,0.00
2013-6-15,80,70,50,52,46,40,86,46,25,29.97,29.81,5,2,14,0.00
2013-6-16,78,68,49,58,55,44,85,65,44,29.98,29.77,4,1,8,0.00
2013-6-17,86,67,57,61,57,53,88,72,39,29.94,29.79,8,1,12,0.02
2013-6-18,69,61,56,58,55,52,89,81,62,30.05,29.92,3,0,8,0.24
2013-6-19,78,63,51,54,50,45,92,67,33,30.21,29.98,4,1,8,0.00
2013-6-20,79,67,47,55,50,44,90,57,33,30.31,30.22,4,1,10,0.00
2013-6-21,85,70,51,61,55,48,88,62,35,30.29,30.25,3,1,11,0.00
2013-6-22,87,74,58,67,62,55,87,68,47,30.28,30.18,3,1,8,0.00
2013-6-23,87,72,66,70,65,62,88,80,57,30.21,29.71,4,1,14,1.12
2013-6-24,94,84,67,70,67,62,89,59,44,30.06,29.95,4,2,10,0.01
2013-6-25,93,83,67,71,68,61,83,60,46,29.99,29.70,4,1,11,0.00
2013-6-26,80,70,59,68,62,55,87,77,62,29.85,29.66,4,1,11,0.11
2013-6-27,70,62,56,60,56,53,90,83,70,29.84,29.76,2,0,7,0.19
2013-6-28,67,63,58,64,60,54,90,89,87,29.80,29.46,4,1,7,0.81
2013-6-29,83,74,65,72,66,-3,91,76,61,29.65,29.47,3,1,14,0.01
2013-6-30,87,78,63,70,66,14,89,68,10,29.89,29.64,4,1,13,0.00
2013-7-1,80,74,66,70,67,62,88,80,65,30.05,29.89,3,0,5,0.15
2013-7-2,68,63,60,65,59,56,90,87,85,30.18,30.03,4,1,9,0.11
2013-7-3,84,72,60,70,64,57,90,76,60,30.18,30.05,3,1,7,0.08
2013-7-4,94,84,63,74,70,60,89,65,48,30.11,29.91,3,1,8,0.00
2013-7-5,95,86,71,74,70,66,86,61,46,30.07,29.95,4,1,13,0.00
2013-7-6,91,83,69,70,67,60,81,61,48,29.99,29.88,3,1,10,0.00
2013-7-7,89,78,66,70,66,59,84,67,48,29.93,29.65,3,0,9,0.00
2013-7-8,76,70,64,69,62,58,87,76,59,30.05,29.88,4,0,8,0.32
2013-7-9,77,67,63,65,61,58,89,81,64,30.08,29.86,3,0,5,0.08
2013-7-10,67,66,61,63,61,57,89,85,77,30.05,29.74,2,0,8,0.17
2013-7-11,86,75,67,73,68,63,90,79,52,29.93,29.70,2,0,5,0.07
2013-7-12,85,70,61,63,59,55,86,68,45,30.20,29.93,3,1,11,0.00
2013-7-13,84,70,58,64,59,54,88,69,46,30.29,30.20,3,0,7,0.00
2013-7-14,92,78,63,71,65,58,87,68,47,30.26,30.16,3,1,8,0.00
2013-7-15,85,80,66,70,68,62,86,67,58,30.15,30.02,2,0,5,0.00
2013-7-16,95,83,68,72,68,62,83,62,44,30.12,30.04,3,1,9,0.00
2013-7-17,94,81,67,73,68,63,86,66,47,30.12,29.89,5,1,11,0.18
2013-7-18,91,80,69,72,67,64,86,67,49,29.96,29.87,3,1,9,0.01
2013-7-19,96,85,69,74,70,64,87,63,46,29.89,29.38,5,1,18,0.00
2013-7-20,91,80,68,70,66,63,83,63,44,29.73,29.36,4,1,12,0.00
2013-7-21,80,72,61,63,59,54,85,64,45,29.98,29.74,3,1,10,0.00
2013-7-22,77,69,62,63,60,57,87,75,59,30.00,26.88,2,0,6,0.00
2013-7-23,70,68,63,65,62,58,87,83,77,29.88,29.50,2,0,5,0.56
2013-7-24,86,73,60,69,61,48,90,67,54,29.95,29.53,4,1,11,0.01
2013-7-25,75,66,55,59,53,47,81,65,52,30.08,29.95,3,1,10,0.00
2013-7-26,74,68,62,62,60,56,85,76,66,30.05,29.86,4,2,14,0.17
2013-7-27,86,76,61,66,62,56,87,63,46,30.01,29.90,3,1,8,0.00
2013-7-28,69,68,60,63,62,56,87,82,80,30.01,29.97,1,0,4,0.05
2013-7-29,82,69,62,67,62,58,89,80,61,30.02,29.94,3,1,9,0.21
2013-7-30,83,72,59,65,59,54,89,65,39,30.06,29.98,4,1,13,0.00
2013-7-31,83,70,55,61,57,51,88,64,39,30.08,30.01,4,1,8,0.00
2013-8-1,82,74,55,64,61,51,88,65,52,30.01,29.85,4,2,12,0.00
2013-8-2,82,72,62,67,62,15,88,74,48,29.90,29.57,3,0,8,0.35
2013-8-3,82,69,57,62,57,54,89,69,43,30.08,29.49,5,1,13,0.01
2013-8-4,81,67,54,62,56,50,88,70,44,30.17,29.57,4,1,14,0.11
2013-8-5,77,67,52,53,50,43,88,56,40,30.26,30.00,4,2,15,0.00
2013-8-6,81,69,46,57,52,43,88,58,39,30.49,30.25,2,0,8,0.00
2013-8-7,80,68,49,62,56,46,88,66,48,30.53,30.19,3,1,11,0.00
2013-8-8,82,71,59,68,63,54,87,76,61,30.31,29.97,2,0,7,0.05
2013-8-9,75,70,68,70,65,63,87,85,79,30.03,29.78,4,1,11,0.63
2013-8-10,84,73,57,66,56,49,90,58,34,30.16,29.88,3,1,9,0.01
2013-8-11,80,70,50,61,54,46,88,60,40,30.45,30.06,1,0,4,0.00
2013-8-12,84,71,53,61,56,49,88,63,39,30.38,29.58,1,0,4,0.00
2013-8-13,75,65,0,62,59,53,88,77,62,30.11,29.57,2,0,4,0.00
2013-8-14,78,70,55,63,55,15,88,60,39,30.17,29.67,5,1,16,0.13
2013-8-15,78,68,52,55,52,47,85,59,42,30.50,30.01,2,0,7,0.00
2013-8-16,81,67,51,58,54,48,88,64,36,30.26,29.96,1,0,4,0.00
2013-8-17,82,69,53,61,55,49,89,64,42,30.48,30.18,1,0,2,0.00
2013-8-18,80,69,53,64,59,50,88,71,53,30.44,29.97,1,0,4,0.00
2013-8-19,86,72,55,64,59,51,88,66,45,30.10,29.65,1,0,2,0.00
2013-8-20,87,76,60,65,61,56,86,63,45,30.20,29.77,0,0,2,0.00
2013-8-21,90,78,60,66,63,56,87,62,42,30.30,29.78,0,0,4,0.00
2013-8-22,90,79,63,66,63,57,84,60,40,30.38,29.70,1,0,5,0.12
2013-8-23,81,73,61,63,53,49,77,50,33,30.29,29.92,4,1,14,0.00
2013-8-24,82,68,50,56,50,45,86,56,30,30.63,30.16,1,0,4,0.00
2013-8-25,81,69,34,58,51,14,79,53,33,30.37,28.73,12,1,12,0.61
2013-8-26,81,71,61,65,62,56,87,74,56,30.36,29.90,4,0,6,0.27
2013-8-27,87,74,63,68,63,59,88,69,48,30.01,29.77,0,0,2,0.00
2013-8-28,85,74,60,67,63,56,88,70,52,30.08,29.81,2,0,4,0.13
2013-8-29,68,66,62,62,58,56,87,77,71,30.32,30.19,2,0,4,0.01
2013-8-30,86,72,61,67,62,56,85,71,51,30.28,29.77,1,0,2,0.00
2013-8-31,85,76,67,68,66,62,87,73,53,30.03,29.70,1,0,2,0.04
2013-9-1,86,76,68,72,66,63,88,73,56,30.15,29.85,4,0,7,0.01
2013-9-2,70,68,64,66,64,60,89,87,84,30.22,29.82,4,0,7,1.71
2013-9-3,82,72,63,68,64,58,90,77,61,29.85,29.65,4,0,5,0.01
2013-9-4,82,70,57,60,56,54,89,64,40,30.07,29.79,8,1,12,0.00
2013-9-5,72,60,50,57,50,43,86,71,39,30.55,30.01,7,1,9,0.20
2013-9-6,71,60,42,49,44,38,90,59,34,30.70,30.40,4,0,4,0.00
2013-9-7,79,66,47,57,52,43,88,63,41,30.48,29.68,4,0,6,0.00
2013-9-8,69,61,46,57,47,40,85,61,43,30.24,29.55,11,2,20,0.05
2013-9-9,72,57,0,52,45,35,88,65,40,30.52,30.09,6,0,8,0.00
2013-9-10,68,63,50,63,57,46,87,82,70,30.17,29.91,4,0,10,0.15
2013-9-11,94,82,63,72,69,59,89,66,47,30.38,29.60,8,1,16,0.50
2013-9-12,82,72,66,72,66,62,88,82,62,30.39,29.42,9,0,14,1.39
2013-9-13,73,65,58,66,60,54,89,84,71,29.71,29.47,5,0,12,0.75
2013-9-14,73,62,51,57,53,46,90,75,54,30.11,29.72,1,0,3,0.01
2013-9-15,73,59,44,53,49,41,90,70,42,30.39,30.12,1,0,2,0.00
2013-9-16,67,57,46,55,48,36,86,71,52,30.49,30.13,8,1,15,0.02
2013-9-17,68,55,39,49,42,35,85,63,41,30.74,30.18,2,0,2,0.00
2013-9-18,76,58,40,53,46,37,90,69,39,30.32,29.92,1,0,3,0.01
2013-9-19,79,61,43,57,50,40,91,71,43,30.12,29.75,2,0,2,0.00
2013-9-20,78,64,46,58,52,43,90,67,43,30.06,29.73,2,0,3,0.00
2013-9-21,71,65,55,61,57,51,91,77,64,29.86,29.54,4,1,8,0.00
2013-9-22,73,64,49,62,53,42,86,68,48,29.58,29.33,6,1,10,0.33
2013-9-23,62,53,43,44,41,38,84,64,50,29.97,29.60,6,0,8,0.00
2013-9-24,61,51,37,44,41,34,88,70,49,29.97,29.82,4,0,11,0.00
2013-9-25,64,56,41,48,45,37,86,68,54,29.97,29.84,2,0,3,0.00
2013-9-26,70,58,44,52,47,40,86,69,52,30.03,29.94,2,0,4,0.00
2013-9-27,74,61,50,55,51,46,84,69,50,30.11,29.98,2,0,3,0.00
2013-9-28,76,60,48,55,49,44,88,70,37,30.22,30.05,2,0,3,0.00
2013-9-29,69,48,43,54,43,40,91,84,46,30.19,30.01,2,0,2,0.00
2013-9-30,69,55,41,54,48,38,91,77,56,30.14,29.85,2,0,3,0.00
2013-10-1,46,45,44,43,41,41,88,87,86,29.90,29.87,1,0,2,0.00
2013-10-4,72,60,53,56,53,50,94,77,46,30.03,29.97,1,0,3,0.01
2013-10-5,63,58,51,53,48,44,93,72,53,30.10,30.02,4,0,4,0.00
2013-10-6,54,51,50,50,45,38,97,81,64,30.24,30.09,8,1,8,0.09
2013-10-7,68,60,51,66,59,50,99,97,92,30.15,29.74,4,1,13,0.78
2013-10-8,64,53,39,58,43,38,95,72,42,30.35,29.80,6,1,12,0.00
2013-10-9,65,49,34,47,40,32,98,76,42,30.45,30.33,2,1,7,0.00
2013-10-10,68,48,34,51,42,34,98,84,38,30.33,30.15,2,0,6,0.00
2013-10-11,68,55,43,54,49,43,98,82,51,30.15,30.08,2,0,7,0.00
2013-10-12,58,52,45,53,49,44,98,90,81,30.39,30.13,2,0,9,0.00
2013-10-13,58,51,42,50,47,41,98,86,66,30.43,30.36,2,0,5,0.00
2013-10-14,66,54,35,50,47,34,98,79,50,30.35,30.19,6,1,9,0.00
2013-10-15,64,58,50,54,52,49,96,83,65,30.24,30.16,3,1,7,0.00
2013-10-16,61,56,52,55,53,49,97,89,73,30.16,29.87,2,1,8,0.00
2013-10-17,73,59,49,57,51,47,97,77,43,29.86,29.66,5,1,14,0.00
2013-10-18,67,57,47,56,49,43,98,77,49,29.80,29.54,6,2,15,0.53
2013-10-19,66,54,41,49,45,38,95,73,42,29.89,29.71,4,1,11,0.00
2013-10-20,62,52,42,50,39,31,98,64,33,29.92,29.62,6,2,19,0.00
2013-10-21,64,50,36,46,41,34,95,73,42,30.05,29.92,5,1,12,0.00
2013-10-22,61,50,39,54,47,38,98,89,65,29.93,29.66,4,1,12,0.06
2013-10-23,53,46,33,42,38,32,98,75,47,29.73,29.54,3,0,7,0.00
2013-10-24,52,45,34,39,32,28,92,61,42,29.79,29.57,8,2,18,0.00
2013-10-25,48,39,29,35,29,25,96,71,45,30.06,29.79,4,1,14,0.00
2013-10-26,51,40,26,36,31,24,95,70,46,30.07,29.82,4,1,12,0.00
2013-10-27,55,45,32,40,35,28,89,68,43,29.98,29.74,6,2,16,0.01
2013-10-28,56,43,30,37,30,24,91,62,44,30.31,29.97,6,2,19,0.00
2013-10-29,49,36,24,29,24,20,92,66,34,30.42,30.31,3,1,8,0.00
2013-10-30,51,38,25,32,28,22,92,72,44,30.32,30.13,4,1,12,0.00
2013-10-31,59,42,26,58,40,25,98,93,84,30.20,29.73,3,0,9,0.28
2013-11-1,68,62,54,62,56,44,98,83,66,29.71,29.31,6,2,19,0.16
2013-11-2,65,55,41,48,44,39,96,70,43,29.70,29.53,5,1,13,0.12
2013-11-3,48,39,32,47,24,18,94,57,39,30.38,29.70,4,2,14,0.00
2013-11-4,42,32,23,22,19,16,89,62,37,30.67,30.39,4,1,12,0.00
2013-11-5,49,35,21,33,28,19,95,77,46,30.68,30.46,3,1,9,0.00
2013-11-6,57,46,30,45,41,29,96,82,60,30.46,29.94,3,1,10,0.00
2013-11-7,59,51,42,57,47,28,95,84,59,29.94,29.58,3,1,13,0.03
2013-11-8,46,39,29,30,26,22,87,60,45,29.97,29.73,5,2,15,0.01
2013-11-9,44,37,26,29,24,21,83,61,40,30.09,29.97,6,1,13,0.00
2013-11-10,43,39,33,41,36,28,96,91,77,30.02,29.67,3,0,10,0.04
2013-11-11,46,40,33,36,30,26,87,69,46,29.99,29.71,6,1,15,0.00
2013-11-12,40,32,24,34,20,15,87,61,51,30.08,29.79,5,2,17,0.00
2013-11-13,36,27,18,17,14,9,86,59,38,30.21,30.05,4,1,12,0.00
2013-11-14,49,36,26,29,24,13,91,63,44,30.05,29.94,5,1,12,0.00
2013-11-15,54,39,25,30,25,21,93,60,29,30.12,30.03,3,1,7,0.00
2013-11-16,58,40,28,35,30,25,94,71,33,30.30,30.13,2,0,4,0.00
2013-11-17,52,44,28,51,43,26,98,94,84,30.30,29.86,2,0,8,0.15
2013-11-18,62,54,44,58,47,35,99,79,48,29.85,29.43,8,2,18,0.39
2013-11-19,45,35,27,35,20,16,77,53,41,30.19,29.54,7,3,18,0.00
2013-11-20,40,31,21,18,15,11,86,54,31,30.59,30.19,5,2,26,0.00
2013-11-21,48,33,18,22,17,10,91,58,22,30.59,30.31,4,0,8,0.00
2013-11-22,38,35,27,36,32,20,96,89,76,30.29,29.74,1,0,3,0.03
2013-11-23,42,35,25,37,22,14,96,61,34,29.81,29.66,7,2,20,0.00
2013-11-24,28,22,19,20,5,1,76,47,39,30.02,29.66,8,5,26,0.00
2013-11-25,30,25,18,12,2,-3,56,37,25,30.27,30.01,5,2,15,0.00
2013-11-26,35,31,26,31,26,12,96,83,50,30.27,30.11,2,0,7,0.05
2013-11-27,59,49,32,58,48,31,98,97,92,30.10,29.12,6,2,20,2.79
2013-11-28,39,27,17,38,14,6,97,60,37,30.35,29.26,8,3,22,0.01
2013-11-29,29,21,14,13,10,6,90,63,40,30.71,30.35,3,1,12,0.00
2013-11-30,30,23,10,21,14,7,91,72,43,30.78,30.39,2,1,8,0.00
2013-12-1,34,32,29,33,31,20,97,94,69,30.39,30.02,2,0,6,0.36
2013-12-2,36,35,33,35,34,32,98,97,96,30.01,29.88,2,1,10,0.02
2013-12-3,45,37,29,40,35,27,99,93,81,29.89,29.81,3,0,9,0.00
2013-12-4,40,32,25,31,27,23,97,84,62,30.17,29.86,3,1,8,0.00
2013-12-5,36,32,24,35,31,23,98,95,89,30.22,29.87,2,0,4,0.05
2013-12-6,45,40,34,44,39,33,99,98,94,30.08,29.80,1,0,4,0.12
2013-12-7,38,32,24,33,22,11,98,68,45,30.38,30.03,6,2,15,0.07
2013-12-8,29,26,19,19,13,9,77,59,43,30.53,30.37,4,1,16,0.00
2013-12-9,27,25,23,25,21,12,95,85,55,30.49,29.80,2,1,8,0.01
2013-12-10,34,28,16,32,26,14,97,92,83,29.87,29.69,3,0,8,0.00
2013-12-11,30,21,11,21,15,9,92,78,53,30.10,29.87,6,1,13,0.00
2013-12-12,21,14,6,17,2,-4,86,60,35,30.21,29.97,5,1,17,0.00
2013-12-13,26,16,5,12,4,-4,87,60,40,30.32,29.88,7,2,19,0.00
2013-12-14,14,9,-1,7,-3,-10,87,58,37,30.59,30.34,3,1,9,0.00
2013-12-15,19,15,10,17,13,7,92,90,88,30.31,29.40,5,2,18,0.00
2013-12-16,24,16,0,20,10,-3,94,80,69,30.16,29.63,7,2,16,0.00
2013-12-17,60,7,-12,9,2,-16,90,82,65,30.27,29.92,10,1,18,3.29
2013-12-18,33,23,12,26,19,9,93,85,71,29.99,29.81,3,1,11,0.00
2013-12-19,33,27,15,29,23,13,94,86,77,30.04,29.88,2,0,7,0.00
2013-12-20,39,32,23,33,29,21,97,91,79,30.08,29.86,1,0,3,0.01
2013-12-21,40,35,32,38,34,31,98,97,91,29.90,29.79,1,0,4,0.24
2013-12-22,35,30,27,34,29,26,98,96,95,30.05,29.83,3,1,9,0.44
2013-12-23,32,31,26,32,30,26,99,97,96,30.08,29.93,2,0,8,0.01
2013-12-24,32,25,14,32,23,12,99,94,89,30.15,30.02,2,0,4,0.00
2013-12-25,20,12,4,15,9,1,92,87,79,30.51,30.15,2,0,8,0.00
2013-12-26,23,17,10,22,15,8,94,93,91,30.48,30.04,2,0,4,0.00
2013-12-27,32,19,7,28,17,4,96,92,81,30.17,30.10,5,0,15,0.00
2013-12-28,36,27,10,32,25,9,97,93,86,30.13,29.90,2,0,9,0.01
2013-12-29,34,28,20,33,28,18,98,96,93,29.97,29.49,2,0,4,0.06
2013-12-30,33,22,3,32,20,0,98,90,77,30.14,29.48,4,0,11,0.07
2013-12-31,13,4,-4,9,1,-7,91,86,76,30.14,30.00,2,0,6,0.00
2014-1-1,21,10,-3,12,5,-5,94,82,61,30.36,30.09,6,1,15,0.00
2014-1-2,8,-1,-5,6,-5,-9,91,84,79,30.39,29.96,4,2,14,0.00